createdAt,value
2023-03-06T00:01:05.563Z,15.00
2023-03-06T00:03:33.935Z,15.50
2023-03-06T00:06:01.816Z,17.00
2023-03-06T00:08:30.757Z,18.00
2023-03-06T00:10:59.267Z,16.00
2023-03-06T00:13:30.295Z,15.00
2023-03-06T00:16:01.177Z,14.00
2023-03-06T00:18:30.021Z,14.33
2023-03-06T00:20:57.884Z,13.50
2023-03-06T00:23:26.160Z,12.00
2023-03-06T00:25:53.915Z,14.00
2023-03-06T00:28:21.591Z,13.00
2023-03-06T00:30:50.288Z,14.33
2023-03-06T00:33:18.001Z,14.00
2023-03-06T00:35:45.768Z,14.00
2023-03-06T00:38:14.291Z,12.00
2023-03-06T00:40:42.100Z,14.00
2023-03-06T00:43:11.259Z,11.00
2023-03-06T00:45:39.034Z,12.00
2023-03-06T00:48:07.262Z,12.00
2023-03-06T00:50:35.453Z,13.00
2023-03-06T00:53:03.236Z,12.00
2023-03-06T00:55:33.658Z,12.67
2023-03-06T00:58:01.490Z,14.00
2023-03-06T01:00:29.249Z,12.00
2023-03-06T01:02:57.033Z,11.00
2023-03-06T01:05:25.694Z,10.00
2023-03-06T01:07:53.761Z,12.00
2023-03-06T01:10:22.573Z,13.67
2023-03-06T01:12:50.291Z,12.00
2023-03-06T01:15:19.040Z,11.00
2023-03-06T01:17:46.927Z,12.00
2023-03-06T01:20:25.578Z,13.67
2023-03-06T01:22:55.667Z,11.67
2023-03-06T01:25:26.199Z,11.00
2023-03-06T01:27:54.089Z,12.50
2023-03-06T01:30:22.422Z,12.00
2023-03-06T01:32:51.029Z,10.33
2023-03-06T01:35:19.732Z,11.00
2023-03-06T01:37:48.445Z,10.00
2023-03-06T01:40:17.138Z,12.00
2023-03-06T01:42:46.853Z,11.00
2023-03-06T01:45:15.413Z,13.00
2023-03-06T01:47:44.935Z,11.67
2023-03-06T01:50:14.020Z,12.00
2023-03-06T01:52:58.691Z,15.00
2023-03-06T01:55:34.795Z,12.50
2023-03-06T01:58:17.186Z,12.00
2023-03-06T02:00:46.523Z,11.33
2023-03-06T02:03:23.817Z,12.00
2023-03-06T02:05:52.677Z,12.00
2023-03-06T02:08:24.218Z,12.00
2023-03-06T02:11:19.328Z,14.67
2023-03-06T02:13:50.222Z,11.00
2023-03-06T02:16:26.084Z,12.00
2023-03-06T02:18:55.364Z,12.00
2023-03-06T02:21:41.362Z,12.00
2023-03-06T02:24:22.941Z,14.00
2023-03-06T02:26:53.674Z,12.67
2023-03-06T02:29:28.064Z,14.00
2023-03-06T02:31:56.459Z,15.00
2023-03-06T02:34:25.595Z,14.00
2023-03-06T02:37:05.813Z,16.00
2023-03-06T02:39:40.210Z,13.67
2023-03-06T02:42:21.220Z,11.67
2023-03-06T02:44:53.157Z,14.00
2023-03-06T02:47:20.906Z,12.00
2023-03-06T02:49:48.774Z,15.00
2023-03-06T02:52:16.507Z,14.00
2023-03-06T02:54:44.236Z,13.50
2023-03-06T02:57:12.336Z,14.00
2023-03-06T02:59:40.117Z,14.00
2023-03-06T03:02:07.927Z,14.50
2023-03-06T03:04:35.947Z,15.00
2023-03-06T03:07:04.588Z,10.00
2023-03-06T03:09:37.044Z,14.00
2023-03-06T03:12:08.117Z,15.00
2023-03-06T03:14:36.232Z,14.00
2023-03-06T03:17:04.960Z,16.50
2023-03-06T03:19:33.745Z,16.50
2023-03-06T03:22:01.725Z,17.00
2023-03-06T03:24:30.510Z,17.00
2023-03-06T03:26:59.328Z,14.00
2023-03-06T03:29:28.034Z,15.00
2023-03-06T03:31:55.858Z,16.00
2023-03-06T03:34:23.660Z,15.00
2023-03-06T03:36:53.305Z,8.00
2023-03-06T03:39:21.974Z,12.00
2023-03-06T03:41:51.066Z,13.00
2023-03-06T03:44:18.805Z,12.50
2023-03-06T03:46:46.559Z,14.00
2023-03-06T03:49:14.923Z,18.50
2023-03-06T03:51:43.910Z,11.33
2023-03-06T03:54:11.707Z,15.00
2023-03-06T03:56:40.882Z,12.00
2023-03-06T03:59:09.488Z,15.00
2023-03-06T04:01:39.524Z,15.00
2023-03-06T04:04:07.659Z,14.00
2023-03-06T04:06:35.421Z,15.00
2023-03-06T04:09:04.652Z,17.00
2023-03-06T04:11:33.456Z,16.00
2023-03-06T04:14:01.278Z,14.50
2023-03-06T04:16:29.089Z,11.00
2023-03-06T04:18:57.829Z,14.67
2023-03-06T04:21:25.556Z,12.50
2023-03-06T04:23:54.210Z,14.33
2023-03-06T04:26:22.029Z,15.00
2023-03-06T04:28:49.827Z,16.00
2023-03-06T04:31:17.609Z,14.50
2023-03-06T04:33:45.365Z,15.00
2023-03-06T04:36:45.201Z,14.33
2023-03-06T04:39:15.123Z,16.00
2023-03-06T04:41:43.294Z,12.00
2023-03-06T04:44:12.120Z,20.00
2023-03-06T04:46:40.790Z,16.50
2023-03-06T04:49:08.550Z,18.00
2023-03-06T04:51:37.488Z,15.33
2023-03-06T04:54:06.352Z,14.33
2023-03-06T04:56:34.785Z,16.00
2023-03-06T04:59:04.837Z,19.00
2023-03-06T05:01:33.601Z,16.50
2023-03-06T05:04:02.316Z,18.50
2023-03-06T05:06:30.971Z,20.00
2023-03-06T05:08:59.767Z,17.00
2023-03-06T05:11:28.637Z,16.50
2023-03-06T05:13:58.105Z,18.00
2023-03-06T05:16:27.586Z,20.33
2023-03-06T05:18:56.348Z,19.50
2023-03-06T05:21:25.773Z,18.00
2023-03-06T05:23:53.842Z,18.00
2023-03-06T05:26:22.589Z,17.00
2023-03-06T05:28:51.261Z,17.00
2023-03-06T05:31:19.977Z,17.00
2023-03-06T05:33:48.669Z,17.00
2023-03-06T05:36:17.387Z,19.50
2023-03-06T05:38:46.020Z,23.00
2023-03-06T05:41:15.459Z,29.50
2023-03-06T05:43:44.970Z,22.00
2023-03-06T05:46:13.739Z,21.00
2023-03-06T05:48:42.415Z,17.00
2023-03-06T05:51:12.193Z,13.00
2023-03-06T05:53:41.634Z,14.33
2023-03-06T05:56:10.411Z,16.00
2023-03-06T05:58:39.345Z,17.00
2023-03-06T06:01:18.761Z,17.00
2023-03-06T06:03:48.484Z,17.00
2023-03-06T06:06:16.551Z,18.00
2023-03-06T06:08:45.336Z,18.00
2023-03-06T06:11:15.028Z,17.50
2023-03-06T06:13:44.559Z,27.00
2023-03-06T06:16:16.980Z,24.33
2023-03-06T06:18:46.879Z,24.33
2023-03-06T06:21:16.534Z,21.67
2023-03-06T06:23:46.350Z,18.33
2023-03-06T06:26:14.999Z,18.00
2023-03-06T06:28:42.770Z,17.00
2023-03-06T06:31:13.295Z,20.00
2023-03-06T06:33:42.494Z,19.00
2023-03-06T06:36:22.147Z,21.00
2023-03-06T06:38:52.363Z,20.33
2023-03-06T06:41:46.961Z,23.00
2023-03-06T06:44:15.613Z,20.00
2023-03-06T06:49:36.220Z,19.00
2023-03-06T06:52:07.480Z,26.33
2023-03-06T06:54:36.970Z,24.67
2023-03-06T06:57:04.916Z,25.00
2023-03-06T06:59:32.724Z,29.00
2023-03-06T07:02:02.244Z,26.67
2023-03-06T07:04:30.962Z,32.00
2023-03-06T07:07:01.251Z,29.00
2023-03-06T07:09:31.074Z,27.00
2023-03-06T07:12:00.039Z,28.50
2023-03-06T07:14:28.793Z,28.00
2023-03-06T07:16:58.602Z,23.00
2023-03-06T07:19:28.141Z,25.67
2023-03-06T07:21:57.614Z,25.00
2023-03-06T07:24:28.243Z,24.00
2023-03-06T07:26:56.120Z,28.00
2023-03-06T07:29:25.575Z,25.00
2023-03-06T07:31:55.118Z,27.00
2023-03-06T07:34:23.800Z,24.00
2023-03-06T07:36:52.465Z,28.50
2023-03-06T07:39:21.998Z,24.00
2023-03-06T07:41:52.464Z,21.67
2023-03-06T07:44:22.278Z,23.33
2023-03-06T07:46:51.806Z,21.67
2023-03-06T07:49:21.388Z,25.00
2023-03-06T07:51:50.807Z,22.33
2023-03-06T07:54:20.289Z,19.67
2023-03-06T07:56:53.699Z,21.00
2023-03-06T07:59:23.153Z,19.00
2023-03-06T08:01:56.074Z,22.33
2023-03-06T08:04:25.610Z,24.00
2023-03-06T08:06:57.645Z,22.33
2023-03-06T08:09:27.302Z,22.00
2023-03-06T08:11:57.196Z,20.67
2023-03-06T08:14:26.841Z,21.67
2023-03-06T08:16:57.289Z,20.00
2023-03-06T08:19:25.007Z,18.00
2023-03-06T08:21:54.479Z,19.00
2023-03-06T08:24:23.155Z,21.00
2023-03-06T08:26:51.890Z,19.00
2023-03-06T08:29:21.385Z,14.33
2023-03-06T08:31:51.624Z,20.00
2023-03-06T08:34:25.262Z,19.00
2023-03-06T08:36:54.264Z,17.50
2023-03-06T08:39:23.843Z,18.50
2023-03-06T08:41:53.315Z,20.33
2023-03-06T08:44:22.737Z,18.00
2023-03-06T08:46:50.559Z,13.00
2023-03-06T08:49:19.557Z,16.00
2023-03-06T08:51:48.300Z,19.00
2023-03-06T08:54:17.012Z,16.00
2023-03-06T08:56:45.716Z,16.00
2023-03-06T08:59:14.777Z,16.00
2023-03-06T09:01:42.652Z,15.00
2023-03-06T09:04:12.294Z,16.33
2023-03-06T09:06:43.159Z,19.00
2023-03-06T09:09:13.047Z,17.00
2023-03-06T09:11:41.738Z,12.00
2023-03-06T09:14:10.419Z,17.00
2023-03-06T09:16:39.425Z,16.00
2023-03-06T09:19:07.360Z,15.00
2023-03-06T09:21:35.058Z,15.00
2023-03-06T09:24:07.192Z,15.75
2023-03-06T09:26:45.378Z,17.00
2023-03-06T09:29:16.616Z,14.00
2023-03-06T09:31:46.396Z,16.00
2023-03-06T09:34:15.319Z,15.00
2023-03-06T09:36:55.950Z,10.00
2023-03-06T09:39:24.991Z,13.00
2023-03-06T09:41:57.700Z,75.67
2023-03-06T09:44:34.017Z,21.00
2023-03-06T09:47:38.797Z,15.50
2023-03-06T09:50:28.781Z,15.50
2023-03-06T09:53:33.078Z,13.00
2023-03-06T09:56:33.567Z,15.00
2023-03-06T09:59:25.142Z,21.00
2023-03-06T10:02:34.381Z,15.50
2023-03-06T10:05:09.484Z,9.00
2023-03-06T10:08:36.759Z,16.00
2023-03-06T10:11:11.288Z,21.00
2023-03-06T10:14:18.998Z,15.50
2023-03-06T10:16:47.868Z,15.00
2023-03-06T10:19:20.772Z,15.00
2023-03-06T10:22:21.733Z,35.33
2023-03-06T10:25:10.412Z,16.00
2023-03-06T10:27:57.904Z,17.00
2023-03-06T10:30:48.597Z,15.50
2023-03-06T10:33:47.901Z,14.00
2023-03-06T10:36:21.329Z,17.00
2023-03-06T10:38:50.521Z,17.00
2023-03-06T10:41:31.809Z,18.00
2023-03-06T10:44:01.162Z,14.00
2023-03-06T10:46:42.592Z,17.33
2023-03-06T10:49:35.684Z,16.00
2023-03-06T10:52:10.382Z,17.00
2023-03-06T10:54:43.870Z,17.00
2023-03-06T10:57:32.253Z,17.33
2023-03-06T11:00:08.712Z,16.50
2023-03-06T11:02:41.266Z,16.50
2023-03-06T11:05:21.572Z,18.00
2023-03-06T11:08:00.364Z,15.00
2023-03-06T11:10:32.030Z,18.00
2023-03-06T11:13:23.838Z,16.67
2023-03-06T11:16:30.772Z,14.50
2023-03-06T11:19:05.687Z,16.00
2023-03-06T11:21:40.559Z,16.67
2023-03-06T11:24:20.978Z,16.00
2023-03-06T11:27:02.274Z,16.00
2023-03-06T11:29:46.093Z,11.00
2023-03-06T11:32:24.367Z,17.00
2023-03-06T11:35:21.694Z,16.00
2023-03-06T11:38:14.601Z,16.50
2023-03-06T11:40:56.106Z,18.00
2023-03-06T11:44:17.548Z,17.00
2023-03-06T11:47:15.883Z,16.67
2023-03-06T11:50:06.491Z,16.00
2023-03-06T11:52:57.758Z,23.67
2023-03-06T11:55:48.614Z,63.00
2023-03-06T11:59:07.860Z,23.00
2023-03-06T12:02:16.480Z,41.00
2023-03-06T12:05:53.410Z,12.33
2023-03-06T12:08:47.075Z,23.00
2023-03-06T12:11:43.814Z,18.00
2023-03-06T12:14:30.952Z,20.00
2023-03-06T12:17:31.014Z,21.00
2023-03-06T12:20:22.423Z,22.00
2023-03-06T12:23:14.630Z,23.00
2023-03-06T12:26:40.486Z,23.00
2023-03-06T12:30:00.232Z,14.00
2023-03-06T12:32:41.750Z,15.00
2023-03-06T12:35:47.193Z,17.00
2023-03-06T12:39:04.304Z,10.50
2023-03-06T12:42:04.935Z,32.00
2023-03-06T12:45:10.138Z,16.50
2023-03-06T12:47:46.755Z,18.00
2023-03-06T12:50:38.431Z,17.33
2023-03-06T12:53:21.238Z,20.33
2023-03-06T12:55:52.374Z,12.33
2023-03-06T12:58:56.289Z,25.67
2023-03-06T13:02:05.456Z,19.33
2023-03-06T13:05:13.589Z,17.00
2023-03-06T13:08:46.038Z,18.00
2023-03-06T13:11:49.792Z,26.00
2023-03-06T13:14:28.324Z,23.00
2023-03-06T13:17:35.489Z,69.88
2023-03-06T13:20:14.947Z,40.25
2023-03-06T13:22:47.344Z,34.00
2023-03-06T13:25:19.931Z,27.00
2023-03-06T13:27:54.739Z,28.00
2023-03-06T13:30:45.326Z,22.50
2023-03-06T13:33:30.226Z,20.00
2023-03-06T13:36:24.274Z,22.00
2023-03-06T13:38:55.179Z,22.00
2023-03-06T13:41:26.217Z,22.00
2023-03-06T13:44:00.301Z,25.00
2023-03-06T13:46:40.214Z,20.33
2023-03-06T13:49:09.639Z,20.00
2023-03-06T13:52:23.444Z,27.00
2023-03-06T13:55:42.332Z,16.00
2023-03-06T13:58:24.588Z,20.33
2023-03-06T14:01:46.858Z,22.33
2023-03-06T14:04:29.140Z,19.67
2023-03-06T14:07:09.589Z,20.67
2023-03-06T14:09:46.951Z,20.33
2023-03-06T14:12:31.677Z,18.67
2023-03-06T14:15:21.430Z,23.00
2023-03-06T14:18:23.841Z,23.00
2023-03-06T14:21:05.790Z,23.00
2023-03-06T14:23:43.665Z,22.00
2023-03-06T14:26:27.748Z,20.33
2023-03-06T14:29:00.632Z,23.00
2023-03-06T14:31:34.623Z,20.67
2023-03-06T14:34:21.229Z,10.00
2023-03-06T14:37:02.173Z,20.33
2023-03-06T14:39:44.274Z,17.33
2023-03-06T14:42:29.903Z,20.75
2023-03-06T14:45:25.202Z,15.00
2023-03-06T14:47:54.213Z,14.00
2023-03-06T14:50:31.236Z,21.67
2023-03-06T14:53:14.342Z,16.67
2023-03-06T14:55:59.109Z,18.00
2023-03-06T14:58:38.710Z,14.00
2023-03-06T15:01:11.204Z,21.00
2023-03-06T15:03:52.390Z,13.00
2023-03-06T15:06:25.971Z,17.00
2023-03-06T15:09:34.705Z,17.00
2023-03-06T15:12:33.987Z,15.00
2023-03-06T15:15:19.058Z,11.00
2023-03-06T15:17:48.567Z,12.00
2023-03-06T15:20:43.908Z,21.00
2023-03-06T15:23:42.426Z,15.00
2023-03-06T15:26:36.984Z,21.50
2023-03-06T15:29:10.347Z,38.67
2023-03-06T15:31:49.589Z,22.00
2023-03-06T15:34:23.929Z,19.67
2023-03-06T15:36:58.527Z,18.33
2023-03-06T15:39:38.075Z,28.00
2023-03-06T15:42:23.606Z,51.25
2023-03-06T15:45:00.164Z,50.25
2023-03-06T15:47:30.639Z,39.00
2023-03-06T15:49:59.387Z,36.00
2023-03-06T15:52:29.036Z,34.33
2023-03-06T15:54:58.584Z,34.00
2023-03-06T15:57:29.525Z,26.67
2023-03-06T16:00:00.984Z,32.75
2023-03-06T16:02:30.501Z,24.00
2023-03-06T16:05:02.597Z,33.67
2023-03-06T16:07:32.156Z,27.00
2023-03-06T16:10:01.723Z,32.00
2023-03-06T16:12:31.828Z,36.00
2023-03-06T16:15:03.154Z,30.00
2023-03-06T16:17:32.737Z,38.00
2023-03-06T16:20:01.332Z,7.67
2023-03-06T16:22:30.772Z,24.67
2023-03-06T16:25:00.346Z,34.33
2023-03-06T16:27:30.016Z,44.33
2023-03-06T16:29:59.548Z,36.75
2023-03-06T16:32:29.168Z,32.00
2023-03-06T16:34:57.973Z,23.00
2023-03-06T16:37:27.700Z,38.33
2023-03-06T16:39:57.115Z,25.67
2023-03-06T16:42:26.722Z,37.00
2023-03-06T16:44:55.457Z,25.67
2023-03-06T16:47:25.946Z,46.00
2023-03-06T16:49:58.183Z,53.25
2023-03-06T16:52:28.283Z,32.00
2023-03-06T16:54:57.035Z,25.00
2023-03-06T16:57:31.605Z,45.67
2023-03-06T17:00:01.198Z,38.00
2023-03-06T17:02:29.942Z,26.50
2023-03-06T17:04:58.999Z,23.00
2023-03-06T17:07:29.670Z,78.75
2023-03-06T17:09:59.350Z,29.67
2023-03-06T17:12:28.844Z,24.00
2023-03-06T17:14:57.646Z,25.00
2023-03-06T17:17:26.321Z,25.00
2023-03-06T17:19:55.819Z,22.33
2023-03-06T17:22:24.858Z,18.00
2023-03-06T17:24:55.034Z,24.67
2023-03-06T17:27:24.546Z,28.00
2023-03-06T17:29:57.810Z,35.33
2023-03-06T17:32:28.958Z,39.67
2023-03-06T17:34:58.855Z,41.33
2023-03-06T17:37:28.692Z,51.00
2023-03-06T17:39:57.436Z,33.00
2023-03-06T17:42:26.975Z,37.00
2023-03-06T17:44:57.492Z,32.00
2023-03-06T17:47:28.037Z,51.00
2023-03-06T17:49:57.568Z,33.33
2023-03-06T17:52:29.642Z,38.33
2023-03-06T17:54:59.083Z,23.67
2023-03-06T17:57:27.772Z,25.50
2023-03-06T17:59:56.518Z,58.00
2023-03-06T18:02:26.062Z,39.25
2023-03-06T18:04:58.301Z,39.50
2023-03-06T18:07:27.816Z,26.00
2023-03-06T18:09:57.415Z,76.00
2023-03-06T18:12:27.059Z,34.33
2023-03-06T18:14:56.849Z,91.33
2023-03-06T18:17:26.535Z,81.00
2023-03-06T18:19:56.880Z,56.00
2023-03-06T18:22:26.328Z,29.00
2023-03-06T18:24:56.138Z,26.00
2023-03-06T18:27:25.658Z,31.00
2023-03-06T18:29:55.748Z,33.67
2023-03-06T18:32:24.467Z,28.50
2023-03-06T18:34:55.190Z,26.00
2023-03-06T18:37:25.089Z,26.00
2023-03-06T18:39:55.018Z,27.33
2023-03-06T18:42:24.825Z,30.00
2023-03-06T18:44:53.547Z,30.00
2023-03-06T18:47:22.997Z,22.33
2023-03-06T18:49:51.648Z,28.00
2023-03-06T18:52:20.524Z,26.50
2023-03-06T18:54:52.327Z,27.50
2023-03-06T18:57:21.148Z,28.00
2023-03-06T18:59:49.040Z,24.00
2023-03-06T19:02:17.840Z,27.50
2023-03-06T19:04:47.478Z,37.00
2023-03-06T19:07:15.243Z,31.00
2023-03-06T19:09:44.757Z,27.67
2023-03-06T19:12:13.482Z,26.50
2023-03-06T19:14:44.378Z,28.33
2023-03-06T19:17:13.892Z,29.00
2023-03-06T19:19:42.535Z,33.00
2023-03-06T19:22:11.305Z,30.00
2023-03-06T19:24:40.772Z,29.00
2023-03-06T19:27:11.592Z,32.33
2023-03-06T19:29:42.059Z,27.00
2023-03-06T19:32:11.654Z,26.33
2023-03-06T19:34:40.422Z,28.00
2023-03-06T19:37:09.994Z,26.00
2023-03-06T19:39:39.587Z,40.33
2023-03-06T19:42:07.492Z,53.00
2023-03-06T19:44:37.946Z,52.75
2023-03-06T19:47:07.632Z,47.00
2023-03-06T19:49:38.862Z,43.00
2023-03-06T19:52:08.349Z,34.33
2023-03-06T19:54:38.046Z,36.67
2023-03-06T19:57:07.923Z,42.00
2023-03-06T19:59:37.433Z,36.00
2023-03-06T20:02:07.356Z,35.00
2023-03-06T20:04:37.172Z,37.00
2023-03-06T20:07:06.966Z,36.00
2023-03-06T20:09:36.568Z,37.00
2023-03-06T20:12:08.264Z,37.00
2023-03-06T20:14:37.956Z,37.00
2023-03-06T20:17:08.134Z,35.00
2023-03-06T20:19:37.837Z,37.00
2023-03-06T20:22:07.503Z,35.33
2023-03-06T20:24:37.063Z,37.33
2023-03-06T20:27:06.685Z,32.33
2023-03-06T20:29:36.301Z,43.00
2023-03-06T20:32:06.193Z,41.33
2023-03-06T20:34:39.144Z,40.33
2023-03-06T20:37:11.982Z,40.33
2023-03-06T20:39:41.640Z,43.00
2023-03-06T20:42:11.465Z,45.67
2023-03-06T20:44:41.400Z,45.00
2023-03-06T20:47:11.008Z,45.33
2023-03-06T20:49:40.624Z,39.33
2023-03-06T20:52:10.182Z,34.33
2023-03-06T20:54:39.990Z,33.33
2023-03-06T20:57:09.544Z,35.00
2023-03-06T20:59:39.188Z,35.33
2023-03-06T21:02:09.817Z,29.00
2023-03-06T21:04:41.160Z,35.00
2023-03-06T21:07:10.812Z,37.00
2023-03-06T21:09:40.351Z,37.00
2023-03-06T21:12:09.864Z,35.33
2023-03-06T21:14:39.390Z,36.67
2023-03-06T21:17:08.872Z,36.33
2023-03-06T21:19:38.386Z,35.67
2023-03-06T21:22:07.591Z,38.00
2023-03-06T21:24:37.436Z,39.33
2023-03-06T21:27:06.972Z,40.33
2023-03-06T21:29:36.616Z,38.00
2023-03-06T21:32:06.534Z,40.00
2023-03-06T21:34:36.166Z,40.00
2023-03-06T21:37:05.687Z,39.00
2023-03-06T21:39:35.481Z,39.33
2023-03-06T21:42:05.823Z,37.33
2023-03-06T21:44:35.352Z,38.67
2023-03-06T21:47:05.220Z,52.00
2023-03-06T21:49:34.881Z,44.00
2023-03-06T21:52:04.932Z,48.67
2023-03-06T21:54:35.431Z,46.00
2023-03-06T21:57:05.338Z,43.33
2023-03-06T21:59:34.939Z,42.33
2023-03-06T22:02:04.693Z,42.67
2023-03-06T22:04:34.418Z,41.00
2023-03-06T22:07:04.100Z,43.67
2023-03-06T22:09:35.877Z,43.67
2023-03-06T22:12:06.078Z,41.00
2023-03-06T22:14:35.708Z,44.33
2023-03-06T22:17:05.446Z,43.00
2023-03-06T22:19:35.336Z,45.00
2023-03-06T22:22:05.552Z,40.00
2023-03-06T22:24:35.220Z,40.67
2023-03-06T22:27:05.170Z,40.67
2023-03-06T22:29:34.852Z,38.33
2023-03-06T22:32:04.656Z,39.00
2023-03-06T22:34:34.509Z,41.33
2023-03-06T22:37:04.273Z,38.00
2023-03-06T22:39:33.753Z,32.00
2023-03-06T22:42:03.545Z,34.00
2023-03-06T22:44:33.013Z,30.33
2023-03-06T22:47:02.504Z,29.00
2023-03-06T22:49:32.691Z,34.00
2023-03-06T22:52:02.179Z,30.67
2023-03-06T22:54:31.077Z,29.00
2023-03-06T22:56:59.776Z,31.50
2023-03-06T22:59:28.536Z,33.00
2023-03-06T23:01:57.201Z,31.50
2023-03-06T23:04:26.027Z,33.00
2023-03-06T23:06:55.894Z,33.33
2023-03-06T23:09:25.291Z,34.00
2023-03-06T23:11:53.982Z,33.50
2023-03-06T23:14:22.702Z,33.00
2023-03-06T23:16:51.880Z,33.00
2023-03-06T23:19:21.335Z,34.00
2023-03-06T23:21:50.842Z,33.00
2023-03-06T23:24:20.344Z,30.33
2023-03-06T23:26:49.374Z,23.00
2023-03-06T23:29:18.816Z,30.00
2023-03-06T23:31:48.348Z,37.67
2023-03-06T23:34:17.919Z,35.33
2023-03-06T23:36:47.461Z,38.33
2023-03-06T23:39:16.919Z,39.00
2023-03-06T23:41:46.400Z,36.33
2023-03-06T23:44:15.933Z,37.00
2023-03-06T23:46:45.462Z,36.33
2023-03-06T23:49:15.201Z,35.00
2023-03-06T23:51:44.756Z,36.00
2023-03-06T23:54:12.523Z,35.00
2023-03-06T23:56:42.052Z,35.33
2023-03-06T23:59:13.056Z,37.00
